Time;durP1;ratioP1;P1;durP2;ratioP2;P2;SDS_P1;SDS_P2;PMS_P1;PMS_P2;Temp;Humidity;BMP_temperature;BMP_pressure;BME280_temperature;BME280_humidity;BME280_pressure;Samples;Min_cycle;Max_cycle;Signal;HPM_P1;HPM_P2
2022/09/09 03:43:28;;;;;;;16.60;15.60;;;15.00;99.90;;;;;;6003564;23;21360;-79
2022/09/09 03:45:56;;;;;;;16.13;15.03;;;15.20;99.90;;;;;;4984767;28;20705;-76
2022/09/09 03:48:24;;;;;;;17.60;16.03;;;15.20;99.90;;;;;;4978494;28;20792;-77
2022/09/09 03:50:52;;;;;;;16.83;15.73;;;15.30;99.90;;;;;;4979320;28;20450;-77
2022/09/09 03:53:21;;;;;;;17.47;16.17;;;15.40;99.90;;;;;;4980771;28;20454;-78
2022/09/09 03:55:49;;;;;;;16.83;15.83;;;15.40;99.90;;;;;;4979515;28;20452;-77
2022/09/09 03:58:18;;;;;;;17.17;15.87;;;15.40;99.90;;;;;;4978284;28;20451;-76
2022/09/09 04:00:54;;;;;;;16.50;15.40;;;15.40;99.90;;;;;;4980756;28;20452;-78
2022/09/09 04:03:20;;;;;;;16.80;15.90;;;15.30;99.90;;;;;;4977984;28;21026;-77
2022/09/09 04:05:49;;;;;;;16.23;15.23;;;15.30;99.90;;;;;;4980357;28;20447;-77
2022/09/09 04:08:16;;;;;;;15.80;15.00;;;15.30;99.90;;;;;;4982491;28;21442;-76
2022/09/09 04:10:42;;;;;;;15.90;14.80;;;15.30;99.90;;;;;;4980475;28;20448;-76
2022/09/09 04:13:09;;;;;;;16.00;15.13;;;15.30;99.90;;;;;;4979118;28;20438;-76
2022/09/09 04:15:36;;;;;;;16.37;15.00;;;15.20;99.90;;;;;;4981392;28;20443;-77
2022/09/09 04:18:05;;;;;;;16.13;14.90;;;15.10;99.90;;;;;;4982049;28;20475;-77
2022/09/09 04:20:32;;;;;;;15.87;14.90;;;15.10;99.90;;;;;;4984244;28;20825;-76
2022/09/09 04:22:59;;;;;;;14.57;13.90;;;15.10;99.90;;;;;;4989936;28;20533;-77
2022/09/09 04:25:26;;;;;;;15.67;14.67;;;15.00;99.90;;;;;;4993464;28;20820;-77
2022/09/09 04:27:54;;;;;;;14.50;13.90;;;15.00;99.90;;;;;;4993721;28;20459;-78
2022/09/09 04:30:21;;;;;;;14.80;13.53;;;15.00;99.90;;;;;;4993994;28;21050;-78
2022/09/09 04:32:48;;;;;;;13.03;12.43;;;15.00;99.90;;;;;;4994032;28;20892;-77
2022/09/09 04:35:16;;;;;;;13.60;13.00;;;15.00;99.90;;;;;;4993784;28;20461;-77
2022/09/09 04:37:44;;;;;;;14.60;14.00;;;15.00;99.90;;;;;;4993778;28;20833;-79
2022/09/09 04:40:11;;;;;;;14.83;13.53;;;15.00;99.90;;;;;;4993349;28;20976;-78
2022/09/09 04:42:38;;;;;;;15.90;14.80;;;15.10;99.90;;;;;;4993448;28;20486;-75
2022/09/09 04:45:06;;;;;;;12.53;12.13;;;15.20;99.90;;;;;;4993535;28;20494;-77
2022/09/09 04:47:35;;;;;;;15.03;14.43;;;15.20;99.90;;;;;;4994031;28;20470;-78
2022/09/09 04:50:01;;;;;;;14.00;13.37;;;15.30;99.90;;;;;;4993726;28;20553;-77
2022/09/09 04:52:29;;;;;;;13.97;12.80;;;15.40;99.90;;;;;;4993591;28;20457;-76
2022/09/09 04:54:56;;;;;;;15.10;14.30;;;15.50;99.90;;;;;;4993478;28;20527;-77
2022/09/09 04:57:23;;;;;;;14.60;13.90;;;15.50;99.90;;;;;;4993325;28;20447;-77
2022/09/09 04:59:49;;;;;;;15.50;14.50;;;15.60;99.90;;;;;;4993525;28;20455;-76
2022/09/09 05:02:16;;;;;;;16.30;15.30;;;15.60;99.90;;;;;;4994189;28;20450;-77
2022/09/09 05:04:43;;;;;;;16.47;15.57;;;15.60;99.90;;;;;;4993322;28;20486;-79
2022/09/09 05:07:10;;;;;;;16.37;15.57;;;15.60;99.90;;;;;;4993058;28;20442;-77
2022/09/09 05:09:38;;;;;;;15.20;14.30;;;15.50;99.90;;;;;;4993113;28;20517;-79
2022/09/09 05:12:05;;;;;;;14.33;13.53;;;15.40;99.90;;;;;;4993387;28;20626;-79
2022/09/09 05:14:31;;;;;;;15.67;14.73;;;15.40;99.90;;;;;;4993172;28;20446;-77
2022/09/09 05:16:58;;;;;;;15.20;14.40;;;15.40;99.90;;;;;;4992892;28;20546;-76
2022/09/09 05:19:25;;;;;;;22.40;20.93;;;15.40;99.90;;;;;;4992875;28;20482;-77
2022/09/09 05:21:51;;;;;;;20.30;18.90;;;15.40;99.90;;;;;;4992967;28;20458;-76
2022/09/09 05:24:18;;;;;;;23.70;21.23;;;15.60;99.90;;;;;;4993286;28;20482;-78
2022/09/09 05:26:46;;;;;;;31.70;19.87;;;15.70;99.90;;;;;;4992793;28;20454;-77
2022/09/09 05:29:13;;;;;;;18.70;16.97;;;15.90;99.90;;;;;;4992797;28;20465;-78
2022/09/09 05:31:41;;;;;;;29.33;16.40;;;16.00;99.90;;;;;;4992998;28;20451;-78
2022/09/09 05:34:07;;;;;;;15.57;14.00;;;16.10;99.90;;;;;;4992479;28;20865;-78
2022/09/09 05:36:34;;;;;;;15.47;14.03;;;16.20;99.90;;;;;;4992450;28;20439;-78
2022/09/09 05:39:01;;;;;;;16.37;15.47;;;16.30;99.90;;;;;;4993061;28;20501;-81
2022/09/09 05:41:28;;;;;;;14.20;13.30;;;16.30;99.90;;;;;;4992754;28;20501;-80
2022/09/09 05:43:58;;;;;;;14.60;13.83;;;16.40;99.90;;;;;;4991839;28;20501;-76
2022/09/09 05:46:25;;;;;;;15.00;14.30;;;16.40;99.90;;;;;;4991346;28;20711;-75
2022/09/09 05:48:53;;;;;;;18.30;16.60;;;16.40;99.90;;;;;;4992203;28;20510;-75
2022/09/09 05:51:21;;;;;;;16.40;15.47;;;16.60;99.90;;;;;;4992484;28;20463;-75
2022/09/09 05:53:49;;;;;;;19.00;17.70;;;16.60;99.90;;;;;;4992582;28;20473;-76
2022/09/09 05:56:17;;;;;;;20.50;19.00;;;16.70;99.90;;;;;;4992049;28;20504;-75
2022/09/09 05:58:46;;;;;;;18.13;16.90;;;16.80;99.90;;;;;;4991619;28;20450;-76
2022/09/09 06:01:16;;;;;;;16.27;15.17;;;16.80;99.90;;;;;;4991740;28;20558;-75
2022/09/09 06:03:45;;;;;;;15.20;14.30;;;16.80;99.90;;;;;;4991999;28;20491;-76
2022/09/09 06:06:13;;;;;;;16.60;14.93;;;16.80;99.90;;;;;;4991725;28;20704;-76
2022/09/09 06:08:44;;;;;;;15.67;14.73;;;16.80;99.90;;;;;;4991608;28;20461;-77
2022/09/09 06:11:12;;;;;;;13.23;12.43;;;16.80;99.90;;;;;;4991618;28;20679;-76
2022/09/09 06:13:40;;;;;;;13.33;12.43;;;16.90;99.90;;;;;;4991995;28;20878;-76
2022/09/09 06:16:08;;;;;;;13.77;12.77;;;16.90;99.90;;;;;;4992230;28;20462;-76
2022/09/09 06:18:36;;;;;;;13.03;12.20;;;16.90;99.90;;;;;;4991546;28;20543;-76
2022/09/09 06:21:06;;;;;;;14.00;12.90;;;16.90;99.90;;;;;;4991732;28;20459;-76
2022/09/09 06:23:34;;;;;;;13.40;12.70;;;17.00;99.90;;;;;;4991852;28;20465;-75
2022/09/09 06:26:06;;;;;;;14.47;13.17;;;17.20;99.90;;;;;;4991556;28;20953;-76
2022/09/09 06:28:33;;;;;;;14.10;13.10;;;17.20;99.90;;;;;;4991822;28;20537;-75
2022/09/09 06:31:00;;;;;;;14.60;13.40;;;17.30;99.90;;;;;;4991216;28;20458;-76
2022/09/09 06:33:27;;;;;;;14.03;13.10;;;17.30;99.90;;;;;;4991292;28;20889;-76
2022/09/09 06:35:56;;;;;;;14.03;13.20;;;17.30;99.90;;;;;;4991202;28;20451;-76
2022/09/09 06:38:23;;;;;;;14.53;13.60;;;17.40;99.90;;;;;;4990977;28;20909;-76
2022/09/09 06:40:54;;;;;;;14.90;14.03;;;17.50;99.90;;;;;;4991407;28;20455;-77
2022/09/09 06:43:21;;;;;;;14.93;14.13;;;;;;;;;;4991144;28;20873;-75
2022/09/09 06:45:54;;;;;;;15.73;14.43;;;18.00;99.90;;;;;;4991150;28;20533;-75
2022/09/09 06:48:21;;;;;;;15.67;14.40;;;18.20;99.90;;;;;;4990511;28;20579;-77
2022/09/09 06:50:49;;;;;;;15.30;14.50;;;18.20;99.90;;;;;;4991239;28;20455;-75
2022/09/09 06:53:18;;;;;;;16.10;15.00;;;18.20;99.90;;;;;;4991182;28;20459;-75
2022/09/09 06:55:46;;;;;;;14.93;13.90;;;18.20;99.90;;;;;;4991193;28;20596;-75
2022/09/09 06:58:13;;;;;;;15.53;14.50;;;18.30;99.90;;;;;;4990967;28;20505;-75
2022/09/09 07:00:39;;;;;;;13.97;13.37;;;18.40;99.90;;;;;;4991099;28;20459;-75
2022/09/09 07:03:06;;;;;;;13.47;12.80;;;18.70;99.90;;;;;;4991187;28;20455;-74
2022/09/09 07:05:33;;;;;;;14.23;13.13;;;18.80;99.90;;;;;;4990943;28;20920;-74
2022/09/09 07:07:59;;;;;;;13.80;13.20;;;18.90;99.90;;;;;;4990896;28;20451;-74
2022/09/09 07:10:27;;;;;;;13.00;12.47;;;19.00;99.90;;;;;;4990939;28;20513;-75
2022/09/09 07:12:54;;;;;;;13.63;12.93;;;19.10;99.90;;;;;;4990576;28;20486;-75
2022/09/09 07:15:22;;;;;;;13.40;12.60;;;19.30;99.90;;;;;;4990829;28;20454;-74
2022/09/09 07:17:49;;;;;;;14.57;13.43;;;19.40;99.90;;;;;;4991008;28;20817;-74
2022/09/09 07:20:16;;;;;;;13.70;12.83;;;19.30;99.90;;;;;;4990947;28;20610;-74
2022/09/09 07:22:43;;;;;;;12.70;11.97;;;19.40;99.90;;;;;;4990791;28;20459;-75
2022/09/09 07:25:10;;;;;;;13.50;12.90;;;19.50;99.90;;;;;;4990476;28;20494;-75
2022/09/09 07:27:38;;;;;;;14.07;13.13;;;19.60;99.90;;;;;;4990770;28;20459;-74
2022/09/09 07:30:06;;;;;;;22.30;13.43;;;19.70;99.90;;;;;;4990834;28;20955;-74
2022/09/09 07:32:33;;;;;;;15.43;13.00;;;19.70;99.90;;;;;;4990917;28;20848;-75
2022/09/09 07:34:59;;;;;;;12.87;12.13;;;19.70;99.90;;;;;;4990627;28;20454;-74
2022/09/09 07:37:26;;;;;;;13.20;12.60;;;19.70;99.90;;;;;;4990357;28;20446;-75
2022/09/09 07:39:53;;;;;;;13.17;12.50;;;19.70;99.90;;;;;;4990342;28;20458;-75
2022/09/09 07:42:20;;;;;;;12.97;12.10;;;19.80;99.90;;;;;;4990560;28;20500;-75
2022/09/09 07:44:48;;;;;;;12.83;12.13;;;19.60;99.90;;;;;;4989847;28;20526;-74
2022/09/09 07:47:15;;;;;;;13.60;12.93;;;19.70;99.90;;;;;;4989337;28;20454;-75
2022/09/09 07:49:41;;;;;;;14.33;13.27;;;19.80;99.90;;;;;;4989494;28;20800;-75
2022/09/09 07:52:08;;;;;;;14.63;13.50;;;20.40;99.90;;;;;;4989246;28;20459;-75
2022/09/09 07:54:35;;;;;;;12.80;12.20;;;20.70;99.90;;;;;;4989522;28;20449;-74
2022/09/09 07:57:03;;;;;;;12.83;12.23;;;20.80;99.90;;;;;;4989482;28;20447;-75
2022/09/09 07:59:30;;;;;;;13.17;12.10;;;20.80;99.90;;;;;;4988874;28;20935;-76
2022/09/09 08:01:58;;;;;;;12.67;12.07;;;20.80;99.90;;;;;;4989259;28;20965;-74
2022/09/09 08:04:27;;;;;;;12.80;12.20;;;20.90;99.90;;;;;;4988320;28;20471;-76
2022/09/09 08:06:57;;;;;;;13.60;12.60;;;21.00;99.90;;;;;;4979056;28;20785;-78
2022/09/09 08:09:26;;;;;;;13.07;12.40;;;21.90;99.90;;;;;;4975395;28;20546;-83
2022/09/09 08:11:53;;;;;;;14.67;13.50;;;22.30;99.90;;;;;;4970317;28;20467;-83
2022/09/09 08:14:20;;;;;;;12.87;12.37;;;22.80;99.90;;;;;;4970021;28;20456;-83
2022/09/09 08:16:48;;;;;;;13.03;12.43;;;23.20;99.90;;;;;;4970322;28;20439;-83
2022/09/09 08:19:17;;;;;;;13.10;12.50;;;23.10;99.90;;;;;;4970362;28;20510;-83
2022/09/09 08:21:45;;;;;;;13.27;12.50;;;22.60;99.90;;;;;;4970129;28;20517;-84
2022/09/09 08:24:13;;;;;;;12.77;12.27;;;22.20;99.90;;;;;;4970684;28;21160;-82
2022/09/09 08:26:42;;;;;;;13.90;12.77;;;22.80;99.90;;;;;;4971804;28;20934;-85
2022/09/09 08:29:11;;;;;;;13.40;12.70;;;23.30;99.90;;;;;;4970277;28;20518;-77
2022/09/09 08:31:39;;;;;;;14.33;13.43;;;24.00;99.40;;;;;;4969786;28;20451;-78
2022/09/09 08:34:07;;;;;;;13.80;12.97;;;24.50;97.90;;;;;;4970045;28;20534;-78
2022/09/09 08:36:38;;;;;;;12.90;12.40;;;25.00;97.30;;;;;;4970225;28;20467;-78
2022/09/09 08:39:06;;;;;;;14.87;13.77;;;25.40;95.20;;;;;;4968799;28;20562;-77
2022/09/09 08:41:46;;;;;;;13.60;13.00;;;26.10;93.90;;;;;;4970344;28;20887;-78
2022/09/09 08:44:20;;;;;;;13.03;12.30;;;26.10;93.40;;;;;;4969472;28;20665;-78
2022/09/09 08:46:58;;;;;;;13.97;13.17;;;26.50;94.60;;;;;;4969953;28;20546;-77
2022/09/09 08:49:46;;;;;;;12.50;11.93;;;26.70;92.20;;;;;;4969329;28;20466;-78
2022/09/09 08:52:20;;;;;;;14.03;13.37;;;26.90;91.30;;;;;;4957311;28;20574;-78
2022/09/09 08:54:47;;;;;;;13.70;13.10;;;27.60;89.90;;;;;;4970117;28;20502;-78
2022/09/09 08:57:20;;;;;;;14.17;13.53;;;28.00;88.10;;;;;;4969863;28;20518;-78
2022/09/09 08:59:47;;;;;;;13.20;12.70;;;28.40;84.50;;;;;;4970165;28;20456;-77
2022/09/09 09:02:21;;;;;;;13.23;12.63;;;28.70;83.20;;;;;;4969809;28;20632;-78
2022/09/09 09:05:02;;;;;;;13.97;13.20;;;28.30;83.40;;;;;;4969778;28;20491;-77
2022/09/09 09:07:47;;;;;;;12.73;12.13;;;29.30;80.00;;;;;;4969605;28;20645;-79
2022/09/09 09:10:26;;;;;;;13.60;12.87;;;30.10;76.70;;;;;;4970716;28;20459;-78
2022/09/09 09:12:53;;;;;;;12.93;12.43;;;29.90;75.90;;;;;;4972975;28;20543;-77
2022/09/09 09:15:24;;;;;;;13.50;12.70;;;30.10;73.80;;;;;;4973403;28;20880;-76
2022/09/09 09:17:51;;;;;;;13.53;12.93;;;30.10;72.00;;;;;;4973423;28;20456;-77
2022/09/09 09:20:23;;;;;;;13.40;12.77;;;29.90;73.50;;;;;;4973394;28;20514;-77
2022/09/09 09:22:55;;;;;;;12.70;12.30;;;30.00;72.10;;;;;;4982472;28;20447;-77
2022/09/09 09:25:24;;;;;;;13.73;13.20;;;28.90;73.70;;;;;;4983064;28;20490;-77
2022/09/09 09:28:01;;;;;;;13.30;12.70;;;28.50;73.20;;;;;;4980782;28;20537;-77
2022/09/09 09:30:35;;;;;;;13.40;12.70;;;28.40;73.80;;;;;;4989951;28;20979;-77
2022/09/09 09:33:06;;;;;;;13.30;12.80;;;28.30;74.50;;;;;;4992537;28;20451;-77
2022/09/09 09:35:33;;;;;;;13.20;12.63;;;26.80;77.40;;;;;;4993140;28;20469;-78
2022/09/09 09:38:02;;;;;;;13.60;12.90;;;25.30;81.20;;;;;;4992458;28;20457;-76
2022/09/09 09:40:30;;;;;;;28.00;26.10;;;23.50;86.70;;;;;;4989310;28;20474;-75
2022/09/09 09:43:00;;;;;;;29.97;28.17;;;21.90;97.90;;;;;;4978918;28;20475;-77
2022/09/09 09:45:33;;;;;;;31.93;30.03;;;20.60;99.90;;;;;;4989216;28;20494;-74
2022/09/09 09:48:02;;;;;;;31.90;29.70;;;20.50;99.90;;;;;;4992396;28;20534;-76
2022/09/09 09:50:28;;;;;;;18.93;17.93;;;21.10;99.90;;;;;;4975252;28;20535;-73
2022/09/09 09:52:57;;;;;;;14.30;13.80;;;21.50;99.90;;;;;;4972705;28;20543;-73
2022/09/09 09:55:26;;;;;;;14.90;14.20;;;22.10;99.90;;;;;;4972408;28;20543;-73
2022/09/09 09:57:53;;;;;;;14.87;14.27;;;22.60;99.90;;;;;;4972386;28;20554;-73
2022/09/09 10:00:22;;;;;;;12.67;12.23;;;23.20;99.90;;;;;;4972539;28;20456;-74
2022/09/09 10:02:51;;;;;;;14.20;13.70;;;23.90;99.90;;;;;;4972742;28;20459;-74
2022/09/09 10:05:21;;;;;;;14.60;13.80;;;25.30;98.90;;;;;;4972597;28;20492;-74
2022/09/09 10:08:01;;;;;;;14.23;13.57;;;26.30;95.60;;;;;;4972604;28;20530;-75
2022/09/09 10:10:49;;;;;;;13.70;13.20;;;27.60;93.70;;;;;;4972153;28;20487;-75
2022/09/09 10:13:23;;;;;;;15.37;14.47;;;28.20;89.70;;;;;;4972320;28;20443;-76
2022/09/09 10:16:02;;;;;;;14.50;13.90;;;29.20;84.00;;;;;;4972452;28;20517;-76
2022/09/09 10:18:40;;;;;;;14.83;14.27;;;29.20;85.00;;;;;;4972204;28;20452;-75
2022/09/09 10:21:20;;;;;;;14.43;13.93;;;29.90;82.50;;;;;;4971955;28;20448;-75
2022/09/09 10:24:12;;;;;;;14.07;13.47;;;31.00;79.90;;;;;;4972183;28;20448;-76
2022/09/09 10:26:51;;;;;;;14.43;13.80;;;31.60;74.90;;;;;;4971654;28;20518;-76
2022/09/09 10:29:39;;;;;;;14.23;13.63;;;31.80;72.90;;;;;;4971966;28;20478;-77
2022/09/09 10:32:28;;;;;;;14.63;14.00;;;32.10;74.00;;;;;;4972185;28;20463;-77
2022/09/09 10:34:58;;;;;;;14.13;13.53;;;32.90;71.80;;;;;;4971661;28;20464;-77
2022/09/09 10:37:42;;;;;;;15.00;14.20;;;32.80;64.20;;;;;;4971832;28;20459;-77
2022/09/09 10:40:26;;;;;;;15.60;14.60;;;32.80;64.70;;;;;;4971626;28;20903;-77
2022/09/09 10:43:12;;;;;;;15.60;14.90;;;32.80;63.20;;;;;;4971075;28;20480;-77
2022/09/09 10:45:49;;;;;;;14.27;13.57;;;33.00;63.30;;;;;;4969409;28;20487;-77
2022/09/09 10:48:32;;;;;;;13.97;13.37;;;32.90;60.80;;;;;;4971822;28;20447;-77
2022/09/09 10:51:14;;;;;;;13.90;13.30;;;32.50;61.60;;;;;;4971781;28;20448;-77
2022/09/09 10:53:52;;;;;;;14.70;14.10;;;32.30;70.40;;;;;;4971861;28;20491;-75
2022/09/09 10:56:23;;;;;;;14.30;13.80;;;32.30;62.50;;;;;;4972142;28;20453;-76
2022/09/09 10:58:57;;;;;;;14.80;14.30;;;31.70;60.60;;;;;;4971850;28;20838;-76
2022/09/09 11:01:27;;;;;;;16.23;15.43;;;30.00;65.20;;;;;;4971211;28;20483;-76
2022/09/09 11:03:58;;;;;;;13.00;12.40;;;28.80;69.70;;;;;;4971382;28;20451;-76
2022/09/09 11:06:32;;;;;;;14.07;13.43;;;27.80;71.60;;;;;;4969378;28;20491;-74
2022/09/09 11:09:01;;;;;;;13.30;12.90;;;27.70;74.90;;;;;;4969484;28;20458;-75
2022/09/09 11:11:33;;;;;;;13.43;12.83;;;29.80;71.40;;;;;;4971299;28;20992;-76
2022/09/09 11:14:09;;;;;;;13.93;13.43;;;31.90;64.40;;;;;;4971185;28;20448;-75
2022/09/09 11:16:42;;;;;;;14.40;13.80;;;31.80;62.20;;;;;;4971438;28;20860;-77
2022/09/09 11:19:17;;;;;;;13.43;12.83;;;29.90;66.50;;;;;;4970893;28;20550;-75
2022/09/09 11:21:47;;;;;;;13.10;12.33;;;28.60;69.90;;;;;;4971315;28;20550;-76
2022/09/09 11:24:19;;;;;;;12.50;12.00;;;28.00;73.00;;;;;;4971020;28;20463;-76
2022/09/09 11:26:49;;;;;;;13.13;12.63;;;27.30;79.00;;;;;;4970950;28;20824;-75
2022/09/09 11:29:58;;;;;;;12.40;11.70;;;27.40;74.30;;;;;;4971246;28;20451;-75
2022/09/09 11:32:41;;;;;;;14.13;13.50;;;26.90;82.50;;;;;;4970315;28;20452;-76
2022/09/09 11:35:26;;;;;;;12.80;12.20;;;27.00;74.60;;;;;;4970911;28;20451;-77
2022/09/09 11:38:17;;;;;;;12.20;11.60;;;25.70;76.10;;;;;;4976990;28;20447;-83
2022/09/09 11:40:46;;;;;;;12.33;11.93;;;24.60;74.80;;;;;;4971482;28;20487;-83
2022/09/09 11:43:17;;;;;;;11.60;11.00;;;24.00;76.30;;;;;;4971049;28;20480;-82
2022/09/09 11:45:53;;;;;;;13.50;12.90;;;23.40;80.00;;;;;;4971675;28;20522;-84
2022/09/09 11:48:34;;;;;;;12.10;11.57;;;23.10;82.70;;;;;;4971700;28;20580;-85
2022/09/09 11:51:07;;;;;;;12.20;11.70;;;23.10;84.10;;;;;;4971363;28;20463;-86
2022/09/09 11:53:34;;;;;;;12.07;11.67;;;23.20;83.90;;;;;;4971496;28;20827;-83
2022/09/09 11:56:12;;;;;;;13.13;12.53;;;23.30;82.10;;;;;;4973557;28;20812;-84
2022/09/09 11:58:46;;;;;;;11.93;11.53;;;23.50;81.30;;;;;;4973208;28;20649;-82
2022/09/09 12:01:36;;;;;;;11.63;11.10;;;23.60;87.90;;;;;;4971483;28;20874;-86
2022/09/09 12:04:23;;;;;;;11.90;11.50;;;23.80;81.40;;;;;;4971452;28;20452;-87
2022/09/09 12:06:54;;;;;;;12.83;12.23;;;24.40;81.10;;;;;;4971516;28;20500;-84
2022/09/09 12:09:30;;;;;;;13.20;12.30;;;24.50;79.10;;;;;;4971113;28;20821;-85
2022/09/09 12:12:22;;;;;;;12.80;12.40;;;24.90;76.20;;;;;;4970436;28;20973;-82
2022/09/09 12:14:59;;;;;;;13.17;12.67;;;26.30;73.80;;;;;;4970853;28;20491;-82
2022/09/09 12:17:29;;;;;;;12.13;11.73;;;27.80;70.00;;;;;;4970824;28;20908;-87
2022/09/09 12:20:08;;;;;;;12.73;12.23;;;29.30;62.90;;;;;;4970923;28;20479;-87
2022/09/09 12:22:44;;;;;;;12.90;12.40;;;28.70;62.50;;;;;;4971197;28;20891;-87
2022/09/09 12:25:23;;;;;;;12.80;12.40;;;28.40;64.00;;;;;;4970344;28;20909;-80
2022/09/09 12:28:02;;;;;;;13.13;12.40;;;27.10;65.50;;;;;;4970603;28;20502;-82
2022/09/09 12:30:33;;;;;;;11.27;10.97;;;26.40;68.30;;;;;;4971080;28;20949;-82
2022/09/09 12:33:12;;;;;;;12.93;12.53;;;27.40;65.30;;;;;;4970482;28;20456;-83
2022/09/09 12:35:40;;;;;;;13.40;12.93;;;30.40;65.70;;;;;;4970645;28;20447;-84
2022/09/09 12:38:13;;;;;;;13.70;13.10;;;30.50;57.70;;;;;;4970928;28;20502;-84
2022/09/09 12:40:40;;;;;;;13.50;12.83;;;30.80;56.50;;;;;;4971009;28;20503;-84
2022/09/09 12:43:19;;;;;;;13.70;13.20;;;31.70;55.50;;;;;;4970378;28;20479;-84
2022/09/09 12:45:48;;;;;;;13.17;12.77;;;32.60;53.10;;;;;;4972608;28;20494;-77
2022/09/09 12:48:21;;;;;;;12.60;12.20;;;32.80;53.20;;;;;;4974255;28;20467;-84
2022/09/09 12:50:50;;;;;;;13.60;13.10;;;33.00;50.50;;;;;;4975235;28;20522;-86
2022/09/09 12:53:26;;;;;;;13.87;13.37;;;32.10;51.40;;;;;;4975359;28;20474;-84
2022/09/09 12:55:56;;;;;;;13.30;12.90;;;30.70;51.70;;;;;;4972298;28;20479;-85
2022/09/09 12:58:24;;;;;;;13.30;12.80;;;29.90;54.30;;;;;;4973898;28;20444;-84
2022/09/09 13:00:53;;;;;;;12.70;12.00;;;29.10;55.30;;;;;;4975656;28;20542;-83
2022/09/09 13:03:21;;;;;;;12.60;12.10;;;28.30;62.60;;;;;;4974741;28;20451;-86
2022/09/09 13:05:49;;;;;;;11.93;11.50;;;28.40;59.00;;;;;;4975212;28;20563;-85
2022/09/09 13:08:19;;;;;;;12.53;12.13;;;29.00;58.00;;;;;;4976169;28;20456;-85
2022/09/09 13:10:50;;;;;;;13.50;12.60;;;29.00;58.00;;;;;;4976630;28;20455;-84
2022/09/09 13:13:20;;;;;;;12.77;12.37;;;28.00;58.50;;;;;;4975526;28;20934;-83
2022/09/09 13:15:53;;;;;;;12.67;12.27;;;27.30;59.70;;;;;;4976117;28;20526;-83
2022/09/09 13:18:24;;;;;;;12.47;12.07;;;26.30;61.60;;;;;;4973956;28;20830;-83
2022/09/09 13:20:52;;;;;;;11.67;11.27;;;25.70;65.20;;;;;;4973699;28;20542;-84
2022/09/09 13:23:20;;;;;;;12.20;11.80;;;25.40;66.60;;;;;;4973742;28;20519;-83
2022/09/09 13:25:56;;;;;;;12.53;12.03;;;25.10;67.60;;;;;;4973935;28;20455;-83
2022/09/09 13:28:25;;;;;;;11.43;11.03;;;25.00;67.50;;;;;;4973343;28;20455;-83
2022/09/09 13:31:00;;;;;;;12.00;11.60;;;25.00;68.10;;;;;;4973249;28;20542;-83
2022/09/09 13:33:33;;;;;;;11.70;11.30;;;25.30;73.30;;;;;;4973435;28;20518;-84
2022/09/09 13:36:03;;;;;;;12.27;11.77;;;26.30;72.10;;;;;;4973622;28;20455;-86
2022/09/09 13:38:34;;;;;;;13.30;12.80;;;26.60;64.70;;;;;;4973235;28;20483;-84
2022/09/09 13:41:04;;;;;;;12.77;12.37;;;28.10;61.30;;;;;;4973005;28;20473;-85
2022/09/09 13:43:33;;;;;;;13.30;12.70;;;28.80;59.30;;;;;;4972662;28;20852;-83
2022/09/09 13:46:02;;;;;;;12.50;11.63;;;29.00;58.20;;;;;;4953260;28;20488;-77
2022/09/09 13:48:31;;;;;;;11.80;11.30;;;28.50;57.50;;;;;;4951345;28;20448;-76
2022/09/09 13:51:00;;;;;;;12.70;12.23;;;28.00;58.40;;;;;;4953163;28;20915;-76
2022/09/09 13:53:27;;;;;;;13.00;12.43;;;26.60;59.30;;;;;;4953368;28;20444;-75
2022/09/09 13:55:56;;;;;;;12.70;12.30;;;25.60;61.80;;;;;;4956863;28;20465;-76
2022/09/09 13:58:24;;;;;;;13.00;12.23;;;24.90;64.30;;;;;;4954359;28;20950;-76
2022/09/09 14:00:52;;;;;;;12.43;11.90;;;24.90;65.40;;;;;;4953200;28;20464;-77
2022/09/09 14:03:18;;;;;;;12.43;11.93;;;25.00;65.20;;;;;;4959086;28;20452;-77
2022/09/09 14:05:47;;;;;;;12.70;12.30;;;25.10;66.80;;;;;;4972621;28;20456;-79
2022/09/09 14:08:22;;;;;;;12.10;11.60;;;25.50;65.90;;;;;;4974233;28;20455;-80
2022/09/09 14:10:49;;;;;;;12.70;12.20;;;25.90;65.40;;;;;;4974568;28;20857;-79
2022/09/09 14:13:16;;;;;;;12.60;12.00;;;26.00;66.10;;;;;;4973676;28;20451;-79
2022/09/09 14:15:42;;;;;;;11.20;10.90;;;25.80;66.20;;;;;;4974145;28;20451;-77
2022/09/09 14:18:12;;;;;;;11.47;10.97;;;25.10;66.40;;;;;;4973282;28;20458;-78
2022/09/09 14:20:38;;;;;;;11.73;11.33;;;24.80;68.30;;;;;;4974179;28;20510;-78
2022/09/09 14:23:07;;;;;;;12.80;12.10;;;24.50;68.60;;;;;;4973373;28;20455;-77
2022/09/09 14:25:34;;;;;;;12.60;12.10;;;24.50;69.80;;;;;;4973155;28;20530;-76
2022/09/09 14:28:01;;;;;;;13.10;12.37;;;24.60;68.00;;;;;;4977945;28;20480;-78
2022/09/09 14:30:28;;;;;;;12.60;12.10;;;24.50;68.70;;;;;;4980891;28;20510;-76
2022/09/09 14:32:55;;;;;;;12.60;12.10;;;24.30;67.70;;;;;;4986443;28;20448;-78
2022/09/09 14:35:22;;;;;;;13.00;12.40;;;24.10;68.40;;;;;;4984942;28;20444;-78
2022/09/09 14:37:49;;;;;;;12.40;11.60;;;24.10;68.30;;;;;;4987063;28;20817;-79
2022/09/09 14:40:17;;;;;;;11.23;10.93;;;24.00;68.80;;;;;;4985750;28;20922;-77
2022/09/09 14:42:44;;;;;;;12.50;12.00;;;24.10;68.60;;;;;;4982081;28;20467;-78
2022/09/09 14:45:12;;;;;;;13.17;12.67;;;24.30;67.70;;;;;;4982658;28;20483;-78
2022/09/09 14:47:38;;;;;;;13.10;12.60;;;24.40;67.70;;;;;;4982724;28;20827;-78
2022/09/09 14:50:07;;;;;;;12.57;11.97;;;24.10;67.00;;;;;;4983873;28;20444;-76
2022/09/09 14:52:35;;;;;;;12.23;11.83;;;24.00;66.80;;;;;;4982256;28;20451;-78
2022/09/09 14:55:01;;;;;;;12.10;11.70;;;23.90;67.30;;;;;;4983579;28;20452;-76
2022/09/09 14:57:29;;;;;;;11.93;11.53;;;23.90;67.50;;;;;;4982749;28;20446;-77
2022/09/09 14:59:56;;;;;;;12.73;12.27;;;23.90;68.20;;;;;;4978277;28;20452;-77
2022/09/09 15:02:23;;;;;;;12.60;12.10;;;23.70;69.50;;;;;;4972750;28;20870;-75
2022/09/09 15:04:52;;;;;;;13.13;12.53;;;23.40;70.10;;;;;;4972117;28;20540;-79
2022/09/09 15:07:22;;;;;;;12.53;12.07;;;23.30;70.00;;;;;;4972519;28;21017;-79
2022/09/09 15:09:48;;;;;;;12.10;11.60;;;23.30;69.70;;;;;;4977983;28;20506;-79
2022/09/09 15:12:18;;;;;;;12.03;11.63;;;23.40;69.70;;;;;;4975831;28;20468;-80
2022/09/09 15:14:46;;;;;;;12.97;12.50;;;23.60;69.70;;;;;;4977183;28;20534;-79
2022/09/09 15:17:14;;;;;;;11.40;11.10;;;23.80;69.60;;;;;;4975380;28;20452;-79
2022/09/09 15:19:41;;;;;;;12.13;11.53;;;23.80;70.10;;;;;;4975520;28;20458;-79
2022/09/09 15:22:09;;;;;;;12.40;12.00;;;23.80;69.30;;;;;;4971158;28;20456;-78
2022/09/09 15:24:36;;;;;;;12.40;11.87;;;23.70;68.90;;;;;;4976954;28;20459;-78
2022/09/09 15:27:03;;;;;;;12.87;12.43;;;23.60;68.50;;;;;;4976483;28;20908;-79
2022/09/09 15:29:30;;;;;;;12.07;11.57;;;23.60;69.20;;;;;;4979633;28;20459;-78
2022/09/09 15:31:58;;;;;;;13.83;13.10;;;23.50;69.10;;;;;;4978652;28;20522;-79
2022/09/09 15:34:25;;;;;;;13.17;12.67;;;23.40;69.70;;;;;;4976599;28;20798;-79
2022/09/09 15:36:51;;;;;;;11.43;10.93;;;23.40;70.30;;;;;;4977543;28;20460;-78
2022/09/09 15:39:19;;;;;;;10.87;10.23;;;23.50;69.60;;;;;;4976220;28;20475;-78
2022/09/09 15:41:47;;;;;;;11.90;11.40;;;23.50;70.40;;;;;;4974372;28;20495;-78
2022/09/09 15:44:15;;;;;;;12.30;11.80;;;23.90;75.80;;;;;;4974300;28;20487;-79
2022/09/09 15:46:43;;;;;;;13.50;13.00;;;23.70;69.50;;;;;;4974516;28;20494;-79
2022/09/09 15:49:14;;;;;;;12.10;11.60;;;23.50;70.10;;;;;;4972806;28;20467;-79
2022/09/09 15:51:43;;;;;;;13.20;12.70;;;23.50;70.70;;;;;;4973335;28;20659;-80
2022/09/09 15:54:11;;;;;;;13.30;12.80;;;23.30;70.90;;;;;;4972505;28;20651;-80
2022/09/09 15:56:38;;;;;;;11.23;10.63;;;23.20;72.10;;;;;;4974848;28;20455;-80
2022/09/09 15:59:05;;;;;;;12.60;12.20;;;23.00;72.60;;;;;;4971550;28;20869;-80
2022/09/09 16:01:33;;;;;;;11.80;11.40;;;22.80;72.40;;;;;;4971617;28;20554;-80
2022/09/09 16:04:00;;;;;;;11.83;11.43;;;22.80;80.50;;;;;;4972413;28;20455;-78
2022/09/09 16:06:29;;;;;;;12.70;12.20;;;22.50;73.00;;;;;;4971980;28;20506;-79
2022/09/09 16:08:59;;;;;;;12.37;11.87;;;22.50;73.00;;;;;;4971899;28;20444;-80
2022/09/09 16:11:28;;;;;;;13.37;12.97;;;22.40;73.60;;;;;;4971005;28;21056;-80
2022/09/09 16:13:56;;;;;;;12.47;12.07;;;22.30;73.70;;;;;;4971749;28;20638;-79
2022/09/09 16:16:24;;;;;;;11.43;10.83;;;22.10;80.60;;;;;;4971234;28;20542;-79
2022/09/09 16:18:53;;;;;;;12.10;11.70;;;22.30;73.60;;;;;;4974006;28;20446;-79
2022/09/09 16:21:22;;;;;;;12.67;12.10;;;22.30;74.20;;;;;;4975380;28;20451;-80
2022/09/09 16:23:51;;;;;;;12.40;11.90;;;22.30;74.60;;;;;;4980595;28;20555;-80
2022/09/09 16:26:19;;;;;;;12.40;12.00;;;22.30;74.50;;;;;;4976031;28;20456;-80